Time;durP1;ratioP1;P1;durP2;ratioP2;P2;SDS_P1;SDS_P2;PMS_P1;PMS_P2;Temp;Humidity;BMP_temperature;BMP_pressure;BME280_temperature;BME280_humidity;BME280_pressure;Samples;Min_cycle;Max_cycle;Signal;HPM_P1;HPM_P2
2021/08/10 00:00:56;;;;;;;8.27;5.45;;;23.40;59.80;;;;;;5054583;28;20388;-62
2021/08/10 00:03:22;;;;;;;8.38;5.70;;;23.40;59.90;;;;;;5054889;28;20025;-61
2021/08/10 00:05:48;;;;;;;8.18;5.57;;;23.30;60.30;;;;;;5054870;28;20041;-61
2021/08/10 00:08:19;;;;;;;7.80;5.82;;;23.20;60.50;;;;;;5053435;28;20024;-62
2021/08/10 00:10:45;;;;;;;8.20;6.28;;;23.20;60.90;;;;;;5053383;28;20025;-63
2021/08/10 00:13:12;;;;;;;8.23;6.30;;;23.20;61.10;;;;;;5054791;28;20024;-62
2021/08/10 00:15:38;;;;;;;7.60;5.38;;;23.10;61.50;;;;;;5054424;28;20426;-62
2021/08/10 00:18:05;;;;;;;7.53;5.97;;;23.00;61.60;;;;;;5054666;28;20456;-62
2021/08/10 00:20:31;;;;;;;9.07;6.20;;;23.00;62.00;;;;;;5055027;28;20029;-61
2021/08/10 00:22:57;;;;;;;7.93;6.18;;;23.00;62.60;;;;;;5054622;28;20797;-61
2021/08/10 00:25:22;;;;;;;8.00;6.05;;;22.90;62.90;;;;;;5054274;28;20025;-61
2021/08/10 00:27:48;;;;;;;8.55;6.22;;;22.90;62.80;;;;;;5054358;28;20036;-62
2021/08/10 00:30:14;;;;;;;9.10;6.50;;;22.80;63.10;;;;;;5054238;28;20025;-61
2021/08/10 00:32:39;;;;;;;9.15;7.10;;;22.80;63.30;;;;;;5054199;28;20101;-61
2021/08/10 00:35:06;;;;;;;8.85;6.68;;;22.80;63.70;;;;;;5054279;28;20037;-61
2021/08/10 00:37:34;;;;;;;8.55;6.68;;;22.70;63.80;;;;;;5053963;28;20466;-62
2021/08/10 00:39:59;;;;;;;9.07;6.82;;;22.60;64.00;;;;;;5054216;28;20106;-61
2021/08/10 00:42:25;;;;;;;10.57;6.65;;;22.60;64.20;;;;;;5054109;28;20460;-62
2021/08/10 00:44:51;;;;;;;9.07;7.20;;;22.60;64.40;;;;;;5054079;28;20021;-62
2021/08/10 00:47:17;;;;;;;8.13;6.20;;;22.50;64.60;;;;;;5054063;28;20025;-61
2021/08/10 00:49:42;;;;;;;8.52;6.60;;;22.50;64.50;;;;;;5053772;28;20033;-61
2021/08/10 00:52:08;;;;;;;8.77;6.65;;;22.40;64.80;;;;;;5053710;28;20035;-61
2021/08/10 00:54:34;;;;;;;8.43;7.03;;;22.40;64.80;;;;;;5053807;28;20131;-61
2021/08/10 00:57:00;;;;;;;8.18;6.80;;;22.40;65.30;;;;;;5053825;28;20025;-61
2021/08/10 00:59:26;;;;;;;10.32;7.25;;;22.30;65.70;;;;;;5053768;28;20114;-61
2021/08/10 01:01:51;;;;;;;9.95;7.05;;;22.20;66.00;;;;;;5053668;28;20029;-61
2021/08/10 01:04:17;;;;;;;8.88;7.15;;;22.20;66.30;;;;;;5053673;28;20043;-61
2021/08/10 01:06:58;;;;;;;11.70;8.13;;;22.20;67.00;;;;;;5053698;28;20041;-61
2021/08/10 01:09:41;;;;;;;9.68;7.90;;;22.10;67.40;;;;;;5053499;28;20032;-61
2021/08/10 01:12:16;;;;;;;9.18;8.02;;;22.00;68.10;;;;;;5053370;28;20037;-61
2021/08/10 01:15:01;;;;;;;9.85;7.90;;;21.90;69.20;;;;;;5053635;28;20028;-61
2021/08/10 01:17:40;;;;;;;9.00;7.53;;;21.90;69.30;;;;;;5053421;28;20025;-62
2021/08/10 01:20:32;;;;;;;9.05;7.80;;;21.80;69.20;;;;;;5053449;28;20017;-61
2021/08/10 01:22:59;;;;;;;10.48;8.40;;;21.80;69.90;;;;;;5047863;28;20040;-61
2021/08/10 01:25:34;;;;;;;11.18;8.55;;;21.80;70.00;;;;;;5053391;28;20519;-60
2021/08/10 01:28:28;;;;;;;10.52;8.30;;;21.80;70.70;;;;;;5053174;28;20025;-61
2021/08/10 01:31:01;;;;;;;10.23;8.23;;;21.70;70.90;;;;;;5052906;28;20025;-60
2021/08/10 01:33:31;;;;;;;9.13;7.85;;;21.70;70.70;;;;;;5053028;28;20056;-61
2021/08/10 01:35:57;;;;;;;9.52;8.13;;;21.70;70.90;;;;;;5052942;28;20052;-61
2021/08/10 01:38:25;;;;;;;9.60;8.02;;;21.70;71.10;;;;;;5052990;28;20082;-61
2021/08/10 01:40:51;;;;;;;10.15;8.40;;;21.60;71.40;;;;;;5053308;28;20048;-61
2021/08/10 01:43:18;;;;;;;11.45;8.52;;;21.70;72.30;;;;;;5054099;28;20033;-61
2021/08/10 01:45:46;;;;;;;10.00;8.05;;;21.60;71.90;;;;;;5063836;28;20029;-61
2021/08/10 01:48:13;;;;;;;11.23;8.90;;;21.60;71.70;;;;;;5053100;28;20096;-61
2021/08/10 01:50:39;;;;;;;11.25;8.27;;;21.60;72.30;;;;;;5052752;28;20075;-61
2021/08/10 01:53:08;;;;;;;9.85;8.07;;;21.60;72.20;;;;;;5052646;28;20028;-61
2021/08/10 01:55:34;;;;;;;9.85;8.10;;;21.50;72.40;;;;;;5052631;28;20107;-62
2021/08/10 01:58:01;;;;;;;9.30;7.97;;;21.50;72.70;;;;;;5052634;28;20028;-61
2021/08/10 02:00:27;;;;;;;10.27;8.57;;;21.50;73.00;;;;;;5052654;28;20032;-61
2021/08/10 02:02:53;;;;;;;10.73;8.50;;;21.40;72.80;;;;;;5052619;28;20033;-61
2021/08/10 02:05:21;;;;;;;8.57;7.65;;;21.40;73.00;;;;;;5052669;28;20048;-61
2021/08/10 02:07:47;;;;;;;9.27;7.88;;;21.40;72.70;;;;;;5052322;28;20480;-61
2021/08/10 02:10:14;;;;;;;9.10;7.80;;;21.40;72.80;;;;;;5052461;28;20037;-62
2021/08/10 02:12:40;;;;;;;9.60;7.90;;;21.40;72.70;;;;;;5051143;28;20358;-62
2021/08/10 02:15:06;;;;;;;10.98;8.23;;;21.40;72.70;;;;;;5052309;28;20032;-62
2021/08/10 02:17:32;;;;;;;8.90;7.55;;;21.40;72.70;;;;;;5052303;28;20017;-62
2021/08/10 02:19:58;;;;;;;10.43;7.85;;;21.50;72.50;;;;;;5052162;28;20032;-61
2021/08/10 02:22:24;;;;;;;9.40;7.47;;;21.50;72.50;;;;;;5051487;28;20021;-61
2021/08/10 02:24:55;;;;;;;9.02;7.97;;;21.50;72.50;;;;;;5052186;28;20067;-61
2021/08/10 02:27:31;;;;;;;9.07;7.40;;;21.50;72.60;;;;;;5051017;28;20116;-61
2021/08/10 02:30:00;;;;;;;9.50;7.78;;;21.40;72.30;;;;;;5051978;28;20418;-61
2021/08/10 02:32:27;;;;;;;8.60;7.53;;;21.40;72.30;;;;;;5051957;28;20472;-60
2021/08/10 02:34:53;;;;;;;9.18;7.75;;;21.40;72.30;;;;;;5052071;28;20025;-61
2021/08/10 02:37:20;;;;;;;9.77;8.68;;;21.40;72.40;;;;;;5051919;28;20025;-60
2021/08/10 02:39:49;;;;;;;9.07;8.10;;;21.30;72.60;;;;;;5034099;28;20037;-60
2021/08/10 02:42:17;;;;;;;9.27;8.07;;;21.30;72.80;;;;;;5052025;28;20031;-61
2021/08/10 02:44:45;;;;;;;9.93;8.25;;;21.30;72.90;;;;;;5051403;28;20033;-61
2021/08/10 02:47:12;;;;;;;10.45;8.50;;;21.20;73.00;;;;;;5051973;28;20516;-61
2021/08/10 02:49:40;;;;;;;10.90;8.80;;;21.20;73.40;;;;;;5052028;28;20116;-61
2021/08/10 02:52:07;;;;;;;10.02;8.80;;;21.20;73.70;;;;;;5051561;28;20083;-60
2021/08/10 02:54:33;;;;;;;10.25;8.80;;;21.10;73.70;;;;;;5051323;28;20017;-62
2021/08/10 02:57:06;;;;;;;9.88;8.23;;;21.10;74.20;;;;;;5051413;28;20036;-62
2021/08/10 02:59:40;;;;;;;10.18;9.07;;;21.10;74.20;;;;;;5051796;28;20439;-62
2021/08/10 03:02:16;;;;;;;10.95;9.43;;;21.10;74.70;;;;;;5051447;28;20041;-62
2021/08/10 03:04:58;;;;;;;11.43;9.30;;;21.10;75.10;;;;;;5050551;28;20426;-62
2021/08/10 03:07:27;;;;;;;11.77;9.70;;;21.00;75.60;;;;;;5051485;28;20044;-62
2021/08/10 03:09:59;;;;;;;11.30;9.75;;;21.00;75.80;;;;;;5051576;28;20031;-62
2021/08/10 03:12:28;;;;;;;11.10;9.90;;;21.00;76.00;;;;;;5051420;28;20029;-61
2021/08/10 03:14:55;;;;;;;12.82;9.50;;;21.10;76.40;;;;;;5051128;28;20051;-61
2021/08/10 03:17:22;;;;;;;11.02;9.70;;;21.00;76.50;;;;;;5051170;28;20036;-61
2021/08/10 03:19:50;;;;;;;14.52;9.88;;;21.00;76.50;;;;;;5050868;28;20100;-62
2021/08/10 03:22:16;;;;;;;11.85;9.77;;;21.10;76.70;;;;;;5051006;28;20408;-62
2021/08/10 03:24:44;;;;;;;11.38;10.18;;;21.10;76.60;;;;;;5051067;28;20495;-61
2021/08/10 03:27:11;;;;;;;11.70;10.57;;;21.20;76.70;;;;;;5051203;28;20488;-61
2021/08/10 03:29:38;;;;;;;11.43;10.23;;;21.20;76.80;;;;;;5051162;28;20047;-61
2021/08/10 03:32:05;;;;;;;11.75;10.55;;;21.10;76.60;;;;;;5050873;28;20025;-60
2021/08/10 03:34:32;;;;;;;12.23;10.45;;;21.20;76.70;;;;;;5054136;28;20032;-62
2021/08/10 03:37:01;;;;;;;12.85;10.63;;;21.20;76.80;;;;;;5054988;28;20151;-62
2021/08/10 03:39:28;;;;;;;11.43;10.23;;;21.20;77.10;;;;;;5054928;28;20025;-62
2021/08/10 03:41:55;;;;;;;11.10;9.95;;;21.20;77.20;;;;;;5054839;28;20025;-62
2021/08/10 03:44:21;;;;;;;12.43;10.75;;;21.20;77.10;;;;;;5053474;28;20031;-62
2021/08/10 03:46:49;;;;;;;11.82;10.43;;;21.30;77.20;;;;;;5054842;28;20412;-62
2021/08/10 03:49:20;;;;;;;11.55;10.35;;;21.30;77.30;;;;;;5055001;28;20036;-62
2021/08/10 03:51:46;;;;;;;12.00;10.70;;;21.30;77.50;;;;;;5052455;28;20029;-62
2021/08/10 03:54:12;;;;;;;11.48;10.27;;;21.30;77.40;;;;;;5046599;28;20033;-62
2021/08/10 03:56:39;;;;;;;13.32;11.45;;;21.30;77.40;;;;;;5034806;28;20025;-62
2021/08/10 03:59:07;;;;;;;13.40;11.90;;;21.40;77.50;;;;;;5033548;28;20017;-62
2021/08/10 04:01:36;;;;;;;13.43;12.02;;;21.40;77.70;;;;;;5046828;28;20031;-62
2021/08/10 04:04:02;;;;;;;12.55;11.25;;;21.40;77.80;;;;;;5047612;28;20043;-62
2021/08/10 04:06:28;;;;;;;11.70;10.50;;;21.40;77.90;;;;;;5054476;28;20500;-62
2021/08/10 04:08:54;;;;;;;13.00;11.63;;;21.40;77.60;;;;;;5054969;28;20032;-62
2021/08/10 04:11:21;;;;;;;13.00;10.73;;;21.50;78.00;;;;;;5054369;28;20032;-62
2021/08/10 04:13:47;;;;;;;12.23;10.82;;;21.50;77.90;;;;;;5054619;28;20025;-62
2021/08/10 04:16:15;;;;;;;13.05;11.35;;;21.50;78.10;;;;;;5053863;28;20082;-62
2021/08/10 04:18:42;;;;;;;11.65;10.45;;;21.50;78.00;;;;;;5054105;28;20163;-62
2021/08/10 04:21:08;;;;;;;11.55;10.35;;;21.50;78.10;;;;;;5053028;28;20119;-62
2021/08/10 04:23:34;;;;;;;13.05;10.95;;;21.50;78.10;;;;;;5053141;28;20100;-62
2021/08/10 04:25:59;;;;;;;12.13;10.93;;;21.50;78.10;;;;;;5054170;28;20107;-62
2021/08/10 04:28:25;;;;;;;12.27;10.57;;;21.50;78.30;;;;;;5053121;28;20033;-62
2021/08/10 04:30:51;;;;;;;12.23;10.52;;;21.50;78.30;;;;;;5053288;28;20040;-62
2021/08/10 04:33:17;;;;;;;13.15;11.65;;;21.60;78.20;;;;;;5053838;28;20057;-62
2021/08/10 04:35:43;;;;;;;12.93;11.60;;;21.60;78.30;;;;;;5053539;28;20403;-62
2021/08/10 04:38:09;;;;;;;13.10;11.13;;;21.70;78.60;;;;;;5053995;28;20096;-62
2021/08/10 04:40:34;;;;;;;14.13;11.75;;;21.70;78.60;;;;;;5053206;28;20020;-62
2021/08/10 04:43:00;;;;;;;12.30;11.00;;;21.80;78.60;;;;;;5053379;28;20498;-62
2021/08/10 04:45:26;;;;;;;12.30;10.48;;;21.80;78.30;;;;;;5052547;28;20037;-61
2021/08/10 04:47:55;;;;;;;13.20;11.38;;;21.80;78.10;;;;;;5053210;28;20479;-63
2021/08/10 04:50:21;;;;;;;12.70;11.40;;;21.80;78.40;;;;;;5053443;28;20044;-63
2021/08/10 04:52:47;;;;;;;12.57;11.30;;;21.80;78.30;;;;;;5053399;28;20017;-61
2021/08/10 04:55:13;;;;;;;13.32;11.38;;;21.90;78.20;;;;;;5053803;28;20159;-61
2021/08/10 04:57:39;;;;;;;11.75;10.55;;;21.90;78.20;;;;;;5052728;28;20025;-62
2021/08/10 05:00:06;;;;;;;12.60;11.30;;;21.90;78.00;;;;;;5052624;28;20025;-62
2021/08/10 05:02:32;;;;;;;12.73;11.43;;;22.00;77.90;;;;;;5044591;28;20103;-62
2021/08/10 05:04:57;;;;;;;13.50;11.98;;;22.00;77.90;;;;;;5047425;28;20072;-62
2021/08/10 05:07:23;;;;;;;13.55;12.13;;;22.00;77.80;;;;;;5052963;28;20021;-63
2021/08/10 05:09:49;;;;;;;13.02;11.73;;;22.00;77.70;;;;;;5053387;28;20025;-62
2021/08/10 05:12:14;;;;;;;13.48;12.13;;;22.10;77.80;;;;;;5053359;28;20079;-63
2021/08/10 05:14:40;;;;;;;15.38;12.85;;;22.10;77.80;;;;;;5052936;28;20068;-62
2021/08/10 05:17:06;;;;;;;13.60;11.55;;;22.20;77.50;;;;;;5052579;28;20448;-62
2021/08/10 05:19:31;;;;;;;14.63;12.45;;;22.20;77.30;;;;;;5052748;28;20043;-62
2021/08/10 05:21:57;;;;;;;13.60;12.20;;;22.20;77.50;;;;;;5052269;28;20026;-62
2021/08/10 05:24:23;;;;;;;13.75;12.43;;;22.30;77.30;;;;;;5051542;28;20025;-62
2021/08/10 05:26:48;;;;;;;12.88;11.40;;;22.30;76.90;;;;;;5053287;28;20021;-63
2021/08/10 05:29:14;;;;;;;13.93;12.52;;;22.30;76.90;;;;;;5052673;28;20025;-63
2021/08/10 05:31:40;;;;;;;13.77;11.80;;;22.40;76.50;;;;;;5052712;28;20104;-61
2021/08/10 05:34:06;;;;;;;12.98;11.60;;;22.40;76.30;;;;;;5051837;28;20828;-62
2021/08/10 05:36:31;;;;;;;13.45;12.10;;;22.50;76.20;;;;;;5051399;28;20055;-62
2021/08/10 05:38:57;;;;;;;13.80;11.95;;;22.60;76.10;;;;;;5052723;28;20082;-62
2021/08/10 05:41:23;;;;;;;12.98;11.68;;;22.60;76.20;;;;;;5051806;28;20025;-62
2021/08/10 05:43:50;;;;;;;14.35;12.77;;;22.70;75.30;;;;;;5052205;28;20032;-62
2021/08/10 05:46:16;;;;;;;13.90;12.18;;;22.70;75.10;;;;;;5052304;28;20524;-63
2021/08/10 05:48:41;;;;;;;13.15;11.68;;;22.70;75.00;;;;;;5052070;28;20029;-63
2021/08/10 05:51:07;;;;;;;12.55;11.32;;;22.80;75.10;;;;;;5051592;28;20476;-63
2021/08/10 05:53:34;;;;;;;13.70;11.57;;;22.90;74.80;;;;;;5051433;28;20100;-63
2021/08/10 05:56:00;;;;;;;14.70;11.65;;;23.00;74.60;;;;;;5051262;28;20013;-63
2021/08/10 05:58:26;;;;;;;13.15;11.75;;;23.00;74.00;;;;;;5051582;28;20025;-61
2021/08/10 06:00:52;;;;;;;11.95;10.75;;;23.10;73.30;;;;;;5051975;28;20698;-62
2021/08/10 06:03:18;;;;;;;12.93;11.48;;;23.10;73.20;;;;;;5050893;28;20116;-63
2021/08/10 06:05:44;;;;;;;12.05;10.82;;;23.10;73.00;;;;;;5051974;28;20041;-62
2021/08/10 06:08:09;;;;;;;12.57;10.80;;;23.20;72.60;;;;;;5051198;28;20591;-62
2021/08/10 06:10:35;;;;;;;12.52;11.07;;;23.30;72.20;;;;;;5051539;28;20040;-64
2021/08/10 06:13:01;;;;;;;12.15;10.90;;;23.30;71.90;;;;;;5050880;28;20025;-64
2021/08/10 06:15:27;;;;;;;12.02;10.60;;;23.40;71.80;;;;;;5050702;28;20021;-62
2021/08/10 06:17:53;;;;;;;11.18;9.60;;;23.50;71.50;;;;;;5051704;28;20097;-64
2021/08/10 06:20:20;;;;;;;11.57;10.25;;;23.50;71.20;;;;;;5052287;28;20025;-63
2021/08/10 06:22:45;;;;;;;12.48;10.55;;;23.60;70.90;;;;;;5052131;28;20136;-62
2021/08/10 06:25:12;;;;;;;11.32;9.38;;;23.70;70.30;;;;;;5051036;28;20120;-63
2021/08/10 06:27:38;;;;;;;11.57;9.77;;;23.80;70.00;;;;;;5051132;28;20083;-63
2021/08/10 06:30:05;;;;;;;10.73;9.63;;;24.00;69.50;;;;;;5051134;28;20021;-63
2021/08/10 06:32:31;;;;;;;9.60;8.60;;;24.10;69.30;;;;;;5050864;28;20104;-62
2021/08/10 06:34:56;;;;;;;10.38;9.27;;;24.20;69.10;;;;;;5050590;28;20437;-64
2021/08/10 06:37:22;;;;;;;10.30;9.20;;;24.40;68.60;;;;;;5050450;28;20025;-63
2021/08/10 06:39:48;;;;;;;10.38;9.25;;;24.60;68.40;;;;;;5050720;28;20041;-64
2021/08/10 06:42:18;;;;;;;10.55;8.98;;;24.70;68.00;;;;;;5051438;28;20028;-67
2021/08/10 06:44:43;;;;;;;9.65;8.50;;;24.80;67.00;;;;;;5051695;28;20021;-69
2021/08/10 06:47:09;;;;;;;9.90;8.90;;;24.80;66.80;;;;;;5051820;28;20047;-70
2021/08/10 06:49:35;;;;;;;9.80;8.80;;;24.90;66.70;;;;;;5055998;28;20096;-70
2021/08/10 06:52:00;;;;;;;11.07;9.15;;;25.00;66.50;;;;;;5056452;28;20099;-70
2021/08/10 06:54:26;;;;;;;9.55;8.55;;;25.10;66.50;;;;;;5050436;28;20107;-68
2021/08/10 06:56:52;;;;;;;9.65;8.65;;;25.10;66.30;;;;;;5050984;28;20025;-65
2021/08/10 06:59:17;;;;;;;10.52;8.63;;;25.20;66.10;;;;;;5048612;28;20090;-63
2021/08/10 07:01:43;;;;;;;10.88;9.38;;;25.20;66.00;;;;;;5061008;28;20406;-63
2021/08/10 07:04:09;;;;;;;9.80;8.80;;;25.30;65.40;;;;;;5060492;28;20391;-67
2021/08/10 07:06:34;;;;;;;9.73;8.73;;;25.40;65.20;;;;;;5059138;28;20041;-64
2021/08/10 07:09:04;;;;;;;9.48;8.40;;;25.40;64.90;;;;;;5046570;28;20028;-64
2021/08/10 07:11:31;;;;;;;10.35;9.13;;;25.50;65.20;;;;;;5040489;28;20247;-63
2021/08/10 07:13:56;;;;;;;10.25;8.52;;;25.60;64.80;;;;;;5048157;28;20044;-63
2021/08/10 07:16:22;;;;;;;9.68;8.15;;;25.70;64.70;;;;;;5040429;28;20029;-63
2021/08/10 07:18:48;;;;;;;9.88;8.57;;;25.80;64.50;;;;;;5035278;28;20045;-64
2021/08/10 07:21:13;;;;;;;9.77;8.77;;;25.90;64.50;;;;;;5041763;28;20450;-63
2021/08/10 07:23:39;;;;;;;9.25;8.25;;;26.00;64.30;;;;;;5051036;28;20632;-63
2021/08/10 07:26:05;;;;;;;9.02;8.13;;;26.10;64.40;;;;;;5051226;28;20138;-63
2021/08/10 07:28:30;;;;;;;8.57;7.63;;;26.10;64.00;;;;;;5051303;28;20021;-63
2021/08/10 07:30:56;;;;;;;9.25;8.10;;;26.30;64.30;;;;;;5050208;28;20365;-63
2021/08/10 07:33:22;;;;;;;8.52;7.45;;;26.40;63.90;;;;;;5050279;28;20476;-62
2021/08/10 07:35:47;;;;;;;9.45;8.55;;;26.40;63.80;;;;;;5050904;28;20021;-62
2021/08/10 07:38:13;;;;;;;9.52;8.38;;;26.60;63.20;;;;;;5053122;28;20140;-63
2021/08/10 07:40:39;;;;;;;10.10;8.63;;;26.70;63.30;;;;;;5052398;28;20088;-63
2021/08/10 07:43:04;;;;;;;9.75;8.75;;;26.80;63.10;;;;;;5051255;28;20045;-62
2021/08/10 07:45:30;;;;;;;10.68;9.07;;;26.90;63.00;;;;;;5049854;28;20050;-62
2021/08/10 07:48:00;;;;;;;9.48;8.48;;;27.00;63.20;;;;;;5050322;28;20032;-62
2021/08/10 07:50:26;;;;;;;8.90;8.00;;;27.10;62.80;;;;;;5051013;28;20076;-66
2021/08/10 07:52:52;;;;;;;10.40;7.97;;;27.30;61.60;;;;;;5050824;28;20102;-73
2021/08/10 07:55:18;;;;;;;10.45;8.50;;;27.50;60.70;;;;;;5050457;28;20028;-63
2021/08/10 07:57:43;;;;;;;9.27;8.18;;;27.70;60.20;;;;;;5050224;28;20017;-64
2021/08/10 08:00:10;;;;;;;9.00;7.88;;;27.90;59.50;;;;;;5057255;28;20464;-64
2021/08/10 08:02:35;;;;;;;10.40;8.30;;;28.10;59.40;;;;;;5033088;28;20033;-62
2021/08/10 08:05:01;;;;;;;8.48;7.57;;;28.30;58.80;;;;;;5049355;28;20025;-62
2021/08/10 08:07:27;;;;;;;8.90;7.97;;;28.50;58.90;;;;;;5050282;28;20025;-62
2021/08/10 08:09:52;;;;;;;8.85;7.95;;;28.60;57.90;;;;;;5050790;28;20021;-63
2021/08/10 08:12:18;;;;;;;9.23;7.57;;;28.80;57.40;;;;;;5050738;28;20063;-61
2021/08/10 08:14:44;;;;;;;8.13;7.32;;;29.00;57.40;;;;;;5049568;28;20025;-62
2021/08/10 08:17:11;;;;;;;10.40;8.60;;;29.20;57.30;;;;;;5050811;28;20020;-63
2021/08/10 08:19:37;;;;;;;9.95;7.95;;;29.40;57.10;;;;;;5050130;28;20345;-63
2021/08/10 08:22:03;;;;;;;9.20;7.50;;;29.70;56.50;;;;;;5052016;28;20115;-63
2021/08/10 08:24:29;;;;;;;8.70;7.65;;;29.90;55.90;;;;;;5051137;28;20357;-62
2021/08/10 08:26:55;;;;;;;8.13;7.20;;;30.10;55.30;;;;;;5051043;28;20032;-66
2021/08/10 08:29:20;;;;;;;8.18;7.32;;;30.40;55.00;;;;;;5053693;28;20064;-63
2021/08/10 08:31:46;;;;;;;7.47;6.70;;;30.60;54.50;;;;;;5053650;28;20035;-62
2021/08/10 08:34:12;;;;;;;8.05;6.80;;;30.90;54.10;;;;;;5053878;28;20017;-61
2021/08/10 08:36:37;;;;;;;8.57;7.30;;;31.00;53.90;;;;;;5053831;28;20063;-62
2021/08/10 08:39:03;;;;;;;8.20;7.30;;;31.20;53.30;;;;;;5053545;28;20357;-62
2021/08/10 08:41:29;;;;;;;9.50;7.93;;;31.40;52.80;;;;;;5053188;28;20484;-62
2021/08/10 08:43:54;;;;;;;10.20;7.68;;;31.60;52.20;;;;;;5052794;28;20037;-64
2021/08/10 08:46:22;;;;;;;9.35;7.55;;;31.80;51.80;;;;;;5052797;28;20401;-63
2021/08/10 08:48:48;;;;;;;8.27;7.20;;;32.00;51.30;;;;;;5052565;28;20029;-62
2021/08/10 08:51:17;;;;;;;9.32;7.40;;;32.10;51.70;;;;;;5053266;28;20356;-63
2021/08/10 08:53:53;;;;;;;8.00;6.65;;;32.30;51.60;;;;;;5052848;28;20464;-64
2021/08/10 08:56:20;;;;;;;8.55;6.82;;;32.50;50.40;;;;;;5053495;28;20069;-62
2021/08/10 08:58:47;;;;;;;7.95;6.45;;;32.50;49.70;;;;;;5052789;28;20176;-62
2021/08/10 09:01:13;;;;;;;9.68;7.10;;;32.70;50.10;;;;;;5052466;28;20132;-63
2021/08/10 09:03:39;;;;;;;8.60;6.75;;;32.80;49.80;;;;;;5053112;28;20510;-64
2021/08/10 09:06:04;;;;;;;8.05;6.60;;;33.00;49.60;;;;;;5053121;28;20072;-64
2021/08/10 09:08:39;;;;;;;8.30;6.95;;;33.10;49.70;;;;;;5053317;28;20039;-63
2021/08/10 09:11:07;;;;;;;8.35;6.82;;;33.40;49.00;;;;;;5051994;28;20115;-64
2021/08/10 09:13:34;;;;;;;8.27;6.97;;;33.50;48.30;;;;;;5053228;28;20049;-63
2021/08/10 09:16:05;;;;;;;7.75;6.63;;;33.70;48.40;;;;;;5052429;28;20459;-64
2021/08/10 09:18:31;;;;;;;7.38;6.03;;;33.90;48.50;;;;;;5053036;28;20060;-64
2021/08/10 09:21:10;;;;;;;9.23;6.47;;;34.10;48.10;;;;;;5052992;28;20078;-64
2021/08/10 09:23:59;;;;;;;8.52;6.60;;;34.30;46.60;;;;;;5052949;28;20102;-63
2021/08/10 09:26:31;;;;;;;6.82;6.03;;;34.50;47.00;;;;;;5052668;28;20106;-63
2021/08/10 09:28:59;;;;;;;7.18;5.13;;;34.60;46.70;;;;;;5052926;28;20139;-64
2021/08/10 09:31:37;;;;;;;7.18;5.50;;;34.70;47.20;;;;;;5052189;28;20061;-62
2021/08/10 09:34:04;;;;;;;7.15;5.80;;;35.00;46.40;;;;;;5051827;28;20017;-62
2021/08/10 09:36:31;;;;;;;8.20;5.50;;;35.10;46.00;;;;;;5052259;28;20043;-63
2021/08/10 09:38:57;;;;;;;6.82;5.20;;;35.30;45.60;;;;;;5051765;28;20025;-64
2021/08/10 09:41:25;;;;;;;7.60;5.63;;;35.20;45.80;;;;;;5052563;28;20039;-62
2021/08/10 09:44:09;;;;;;;8.88;6.03;;;35.40;45.30;;;;;;5052450;28;20029;-62
2021/08/10 09:46:39;;;;;;;7.32;5.43;;;35.40;45.60;;;;;;5051241;28;20032;-62
2021/08/10 09:49:07;;;;;;;6.90;5.20;;;35.50;45.90;;;;;;5051423;28;20029;-62
2021/08/10 09:51:38;;;;;;;7.70;5.28;;;35.70;45.80;;;;;;5052389;28;20025;-62
2021/08/10 09:54:08;;;;;;;7.00;5.72;;;35.90;45.10;;;;;;5052372;28;20021;-62
2021/08/10 09:56:51;;;;;;;8.10;6.05;;;36.00;45.30;;;;;;5051551;28;20021;-63
2021/08/10 09:59:21;;;;;;;6.40;5.13;;;36.20;44.30;;;;;;5051432;28;20021;-63
2021/08/10 10:01:53;;;;;;;6.07;4.70;;;36.30;44.10;;;;;;5051922;28;20048;-63
2021/08/10 10:04:23;;;;;;;6.85;4.70;;;36.50;44.00;;;;;;5052294;28;20040;-63
2021/08/10 10:06:51;;;;;;;5.85;4.90;;;36.50;43.80;;;;;;5050908;28;20060;-62
2021/08/10 10:09:18;;;;;;;6.93;5.40;;;36.60;43.70;;;;;;5051007;28;20033;-63
2021/08/10 10:11:46;;;;;;;6.15;4.88;;;36.70;43.50;;;;;;5051627;28;20025;-64
2021/08/10 10:14:12;;;;;;;6.00;4.78;;;36.70;43.60;;;;;;5050685;28;20098;-63
2021/08/10 10:16:44;;;;;;;6.55;5.10;;;36.70;43.50;;;;;;5050521;28;20009;-63
2021/08/10 10:19:12;;;;;;;7.50;4.97;;;36.90;43.40;;;;;;5051429;28;20104;-64
2021/08/10 10:21:45;;;;;;;5.70;4.60;;;36.90;43.30;;;;;;5051583;28;20071;-64
2021/08/10 10:24:12;;;;;;;7.53;4.97;;;37.00;43.30;;;;;;5050886;28;20101;-62
2021/08/10 10:26:41;;;;;;;7.10;4.90;;;37.00;43.20;;;;;;5051820;28;20057;-63
2021/08/10 10:29:09;;;;;;;7.00;4.82;;;37.20;43.40;;;;;;5050702;28;20103;-63
2021/08/10 10:31:35;;;;;;;6.00;4.90;;;37.20;43.20;;;;;;5052093;28;20021;-63
2021/08/10 10:34:01;;;;;;;6.93;5.00;;;37.20;43.10;;;;;;5051322;28;20025;-63
2021/08/10 10:36:27;;;;;;;8.73;4.85;;;37.40;43.00;;;;;;5051539;28;20025;-63
2021/08/10 10:38:55;;;;;;;5.97;4.55;;;37.40;43.00;;;;;;5051384;28;20017;-62
2021/08/10 10:41:26;;;;;;;7.65;4.90;;;37.50;43.30;;;;;;5051622;28;20488;-62
2021/08/10 10:43:55;;;;;;;7.45;5.30;;;37.70;42.70;;;;;;5051181;28;20144;-64
2021/08/10 10:46:37;;;;;;;8.98;6.03;;;37.50;42.10;;;;;;5051703;28;20036;-64
2021/08/10 10:49:05;;;;;;;8.55;5.53;;;37.40;42.30;;;;;;5051439;28;20580;-64
2021/08/10 10:51:33;;;;;;;7.53;5.30;;;37.40;42.60;;;;;;5051333;28;20451;-62
2021/08/10 10:54:27;;;;;;;7.63;5.47;;;37.50;41.90;;;;;;5052056;28;20023;-63
2021/08/10 10:56:56;;;;;;;7.20;5.10;;;37.60;41.90;;;;;;5050320;28;20402;-63
2021/08/10 10:59:30;;;;;;;9.82;5.93;;;37.80;41.90;;;;;;5050351;28;20024;-62
2021/08/10 11:02:26;;;;;;;8.40;6.10;;;37.90;42.00;;;;;;5050257;28;20484;-63
2021/08/10 11:05:07;;;;;;;7.53;5.13;;;38.20;41.70;;;;;;5037204;28;20450;-63
2021/08/10 11:07:55;;;;;;;6.28;4.53;;;38.60;41.20;;;;;;5050702;28;20040;-61
2021/08/10 11:10:42;;;;;;;7.25;4.80;;;38.80;41.00;;;;;;5050945;28;20025;-63
2021/08/10 11:13:16;;;;;;;9.13;4.43;;;38.80;40.70;;;;;;5050940;28;20032;-66
2021/08/10 11:15:45;;;;;;;6.80;4.20;;;39.00;41.30;;;;;;5050398;28;20485;-63
2021/08/10 11:18:11;;;;;;;5.70;3.75;;;39.10;40.40;;;;;;5051046;28;20165;-62
2021/08/10 11:20:40;;;;;;;6.65;4.20;;;39.10;40.40;;;;;;5050014;28;20024;-63
2021/08/10 11:23:24;;;;;;;7.03;4.35;;;39.20;40.10;;;;;;5050440;28;20037;-63
2021/08/10 11:25:57;;;;;;;7.82;4.53;;;39.20;40.00;;;;;;5051369;28;20464;-62
2021/08/10 11:28:27;;;;;;;5.95;4.15;;;39.40;39.90;;;;;;5050584;28;20100;-62
2021/08/10 11:30:55;;;;;;;6.18;4.00;;;39.40;39.70;;;;;;5050016;28;20024;-65
2021/08/10 11:33:33;;;;;;;5.85;3.83;;;39.30;39.60;;;;;;5051165;28;20109;-62
2021/08/10 11:36:14;;;;;;;5.80;4.07;;;39.50;39.60;;;;;;5050950;28;20043;-62
2021/08/10 11:38:47;;;;;;;;;;;39.60;39.10;;;;;;5050481;28;20021;-63
2021/08/10 11:41:13;;;;;;;5.43;3.95;;;39.50;39.50;;;;;;5049891;28;19908;-63
2021/08/10 11:43:45;;;;;;;6.93;3.90;;;39.70;39.70;;;;;;5050863;28;20108;-63
2021/08/10 11:46:25;;;;;;;5.82;4.07;;;40.00;39.70;;;;;;5050704;28;20075;-63
2021/08/10 11:48:53;;;;;;;5.88;4.03;;;40.10;40.00;;;;;;5051002;28;20387;-62
2021/08/10 11:51:46;;;;;;;5.63;3.90;;;40.20;39.30;;;;;;5050465;28;20033;-64
2021/08/10 11:54:17;;;;;;;6.07;3.88;;;40.30;38.90;;;;;;5048985;28;20037;-63
2021/08/10 11:56:47;;;;;;;6.60;3.92;;;40.50;39.00;;;;;;5054250;28;20013;-63
2021/08/10 11:59:19;;;;;;;5.82;3.92;;;40.60;38.60;;;;;;5054453;28;20092;-62
2021/08/10 12:01:46;;;;;;;5.68;3.95;;;40.50;38.70;;;;;;5054359;28;20025;-63
2021/08/10 12:04:20;;;;;;;6.22;3.90;;;40.50;38.50;;;;;;5054130;28;20108;-64
2021/08/10 12:06:50;;;;;;;5.65;4.00;;;40.50;38.80;;;;;;5054091;28;20500;-63
2021/08/10 12:09:18;;;;;;;5.32;3.75;;;40.70;38.50;;;;;;5054298;28;20396;-64
2021/08/10 12:11:50;;;;;;;5.85;3.53;;;40.60;38.30;;;;;;5054443;28;20369;-63
2021/08/10 12:14:19;;;;;;;5.07;3.70;;;40.60;38.40;;;;;;5054431;28;20029;-63
2021/08/10 12:17:03;;;;;;;5.00;3.75;;;40.50;38.70;;;;;;5054164;28;20019;-62
2021/08/10 12:19:37;;;;;;;6.57;4.00;;;40.70;38.60;;;;;;5054193;28;20025;-62
2021/08/10 12:22:06;;;;;;;5.43;3.90;;;40.80;38.30;;;;;;5053944;28;20025;-63
2021/08/10 12:24:37;;;;;;;7.18;3.80;;;40.80;38.20;;;;;;5053286;28;20105;-62
2021/08/10 12:27:03;;;;;;;5.38;3.75;;;40.90;38.20;;;;;;5053123;28;20537;-63
2021/08/10 12:29:36;;;;;;;6.00;3.90;;;40.80;38.00;;;;;;5053919;28;20087;-63
2021/08/10 12:32:04;;;;;;;5.88;3.65;;;40.90;38.10;;;;;;5053106;28;20025;-62
2021/08/10 12:34:31;;;;;;;5.72;3.90;;;40.90;38.40;;;;;;5053230;28;20074;-62
2021/08/10 12:36:58;;;;;;;4.78;3.50;;;41.10;38.50;;;;;;5052855;28;20044;-62
2021/08/10 12:39:24;;;;;;;5.32;3.50;;;41.20;38.60;;;;;;5053679;28;20025;-63
2021/08/10 12:41:50;;;;;;;5.57;3.50;;;41.40;38.40;;;;;;5053847;28;20028;-62
2021/08/10 12:44:16;;;;;;;6.03;3.55;;;41.60;38.20;;;;;;5053077;28;20542;-63
2021/08/10 12:46:43;;;;;;;6.28;3.40;;;41.70;38.10;;;;;;5053579;28;20041;-62